Time;durP1;ratioP1;P1;durP2;ratioP2;P2;SDS_P1;SDS_P2;PMS_P1;PMS_P2;Temp;Humidity;BMP_temperature;BMP_pressure;BME280_temperature;BME280_humidity;BME280_pressure;Samples;Min_cycle;Max_cycle;Signal;HPM_P1;HPM_P2
2022/10/08 00:01:11;;;;;;;11.77;2.45;;;;;;;;;;5076800;28;20425;-82
2022/10/08 00:03:45;;;;;;;9.90;2.70;;;;;;;;;;5090837;28;20433;-82
2022/10/08 00:06:14;;;;;;;11.52;2.47;;;;;;;;;;5093823;28;20415;-82
2022/10/08 00:08:50;;;;;;;12.20;2.80;;;;;;;;;;5096402;28;20416;-82
2022/10/08 00:11:19;;;;;;;12.00;2.53;;;;;;;;;;5084279;28;20406;-82
2022/10/08 00:13:48;;;;;;;10.30;2.40;;;;;;;;;;5076485;28;20422;-82
2022/10/08 00:16:22;;;;;;;12.70;2.42;;;;;;;;;;5076761;28;20459;-82
2022/10/08 00:18:57;;;;;;;8.82;2.40;;;;;;;;;;5076712;28;20440;-82
2022/10/08 00:21:31;;;;;;;12.37;2.60;;;;;;;;;;5076697;28;20451;-82
2022/10/08 00:24:01;;;;;;;10.10;2.47;;;;;;;;;;5079447;28;20424;-82
2022/10/08 00:26:30;;;;;;;13.50;2.85;;;;;;;;;;5115518;28;20405;-82
2022/10/08 00:28:58;;;;;;;8.82;2.58;;;;;;;;;;5077783;28;20418;-83
2022/10/08 00:31:27;;;;;;;13.40;3.00;;;;;;;;;;5111251;28;20421;-83
2022/10/08 00:34:01;;;;;;;9.77;2.53;;;;;;;;;;5096655;28;20428;-82
2022/10/08 00:36:30;;;;;;;13.80;2.63;;;;;;;;;;5115379;28;20404;-82
2022/10/08 00:38:59;;;;;;;7.80;2.22;;;;;;;;;;5096838;28;20757;-84
2022/10/08 00:41:34;;;;;;;9.98;2.65;;;;;;;;;;5115009;28;20420;-82
2022/10/08 00:44:22;;;;;;;9.88;2.50;;;;;;;;;;5092952;28;20882;-83
2022/10/08 00:46:50;;;;;;;10.83;2.50;;;;;;;;;;5077828;28;20410;-83
2022/10/08 00:49:20;;;;;;;10.93;2.50;;;;;;;;;;5109609;28;20909;-82
2022/10/08 00:51:58;;;;;;;14.35;2.75;;;;;;;;;;5075588;28;20402;-83
2022/10/08 00:54:31;;;;;;;13.00;2.58;;;;;;;;;;5094407;28;20437;-83
2022/10/08 00:57:00;;;;;;;10.50;2.33;;;;;;;;;;5094412;28;20409;-84
2022/10/08 00:59:34;;;;;;;10.85;2.75;;;;;;;;;;5076123;28;20428;-83
2022/10/08 01:02:08;;;;;;;9.52;2.38;;;;;;;;;;5087015;28;20915;-82
2022/10/08 01:04:42;;;;;;;12.15;2.58;;;;;;;;;;5114685;28;20415;-83
2022/10/08 01:07:13;;;;;;;10.18;2.45;;;;;;;;;;5095651;28;20446;-83
2022/10/08 01:09:45;;;;;;;10.77;2.72;;;;;;;;;;5096102;28;20416;-82
2022/10/08 01:12:21;;;;;;;11.73;2.50;;;;;;;;;;5096178;28;20419;-82
2022/10/08 01:14:55;;;;;;;9.00;2.42;;;;;;;;;;5095797;28;20404;-82
2022/10/08 01:17:26;;;;;;;11.20;2.70;;;;;;;;;;5114517;28;20392;-83
2022/10/08 01:20:12;;;;;;;11.18;2.63;;;;;;;;;;5075988;28;20422;-82
2022/10/08 01:22:47;;;;;;;7.03;2.42;;;;;;;;;;5094005;28;20901;-82
2022/10/08 01:25:32;;;;;;;11.93;2.83;;;;;;;;;;5108932;28;20422;-83
2022/10/08 01:28:11;;;;;;;8.40;2.67;;;;;;;;;;5075252;28;20406;-83
2022/10/08 01:30:46;;;;;;;10.00;2.50;;;;;;;;;;5094017;28;20455;-82
2022/10/08 01:33:22;;;;;;;11.83;2.60;;;;;;;;;;5110798;28;20403;-83
2022/10/08 01:35:57;;;;;;;14.18;2.80;;;;;;;;;;5088729;28;20778;-82
2022/10/08 01:38:26;;;;;;;12.02;2.67;;;;;;;;;;5107241;28;20887;-83
2022/10/08 01:40:57;;;;;;;8.73;2.60;;;;;;;;;;5074787;28;20417;-82
2022/10/08 01:43:30;;;;;;;11.80;2.72;;;;;;;;;;5092091;28;20422;-82
2022/10/08 01:46:00;;;;;;;10.98;2.67;;;;;;;;;;5092169;28;20418;-82
2022/10/08 01:48:29;;;;;;;15.73;2.88;;;;;;;;;;5075118;28;20480;-83
2022/10/08 01:50:58;;;;;;;16.27;2.85;;;;;;;;;;5101138;28;20408;-83
2022/10/08 01:53:29;;;;;;;14.63;3.20;;;;;;;;;;5093838;28;20427;-84
2022/10/08 01:56:04;;;;;;;14.52;2.80;;;;;;;;;;5112280;28;20412;-83
2022/10/08 01:58:36;;;;;;;11.00;2.42;;;;;;;;;;5107414;28;20404;-83
2022/10/08 02:01:06;;;;;;;13.17;2.63;;;;;;;;;;5091608;28;20420;-82
2022/10/08 02:03:34;;;;;;;10.17;2.60;;;;;;;;;;5074513;28;20774;-84
2022/10/08 02:06:03;;;;;;;15.50;2.75;;;;;;;;;;5074939;28;20417;-82
2022/10/08 02:08:30;;;;;;;9.97;2.73;;;;;;;;;;5074109;28;20421;-83
2022/10/08 02:11:03;;;;;;;9.63;2.80;;;;;;;;;;5074181;28;20437;-85
2022/10/08 02:13:32;;;;;;;13.05;2.70;;;;;;;;;;5093069;28;20409;-82
2022/10/08 02:16:05;;;;;;;12.18;2.67;;;;;;;;;;5093326;28;20414;-82
2022/10/08 02:18:41;;;;;;;14.00;2.55;;;;;;;;;;5074349;28;20422;-82
2022/10/08 02:21:17;;;;;;;9.50;2.43;;;;;;;;;;5082181;28;20479;-82
2022/10/08 02:23:53;;;;;;;11.57;2.87;;;;;;;;;;5093990;28;20483;-82
2022/10/08 02:26:29;;;;;;;14.80;2.70;;;;;;;;;;5112960;28;20412;-82
2022/10/08 02:29:00;;;;;;;13.15;2.65;;;;;;;;;;5109908;27;20430;-82
2022/10/08 02:31:35;;;;;;;10.27;2.65;;;;;;;;;;5133808;27;20406;-82
2022/10/08 02:34:04;;;;;;;14.68;2.70;;;;;;;;;;5114438;27;20418;-82
2022/10/08 02:36:38;;;;;;;12.15;2.63;;;;;;;;;;5115102;27;20413;-82
2022/10/08 02:39:12;;;;;;;13.48;2.60;;;;;;;;;;5114389;27;20430;-82
2022/10/08 02:41:48;;;;;;;10.43;2.42;;;;;;;;;;5114611;27;20437;-82
2022/10/08 02:44:20;;;;;;;9.70;2.63;;;;;;;;;;5100020;28;20423;-83
2022/10/08 02:46:50;;;;;;;7.35;2.45;;;;;;;;;;5094102;28;20419;-82
2022/10/08 02:49:19;;;;;;;10.80;2.65;;;;;;;;;;5112829;28;20407;-82
2022/10/08 02:51:48;;;;;;;14.43;2.85;;;;;;;;;;5093702;28;20431;-82
2022/10/08 02:54:22;;;;;;;10.52;2.75;;;;;;;;;;5083266;28;20922;-82
2022/10/08 02:56:52;;;;;;;15.23;2.83;;;;;;;;;;5096682;27;20421;-82
2022/10/08 02:59:26;;;;;;;12.10;2.70;;;;;;;;;;5101928;28;20430;-82
2022/10/08 03:02:01;;;;;;;13.63;2.63;;;;;;;;;;5095623;28;20430;-82
2022/10/08 03:04:36;;;;;;;10.65;2.80;;;;;;;;;;5090474;27;20420;-82
2022/10/08 03:07:04;;;;;;;9.82;2.53;;;;;;;;;;5114347;27;20771;-83
2022/10/08 03:09:38;;;;;;;12.53;2.90;;;;;;;;;;5132627;27;20410;-81
2022/10/08 03:12:06;;;;;;;8.15;2.45;;;;;;;;;;5092141;28;20756;-82
2022/10/08 03:14:43;;;;;;;12.30;2.50;;;;;;;;;;5075991;28;20878;-84
2022/10/08 03:17:13;;;;;;;13.65;2.75;;;;;;;;;;5074609;28;20418;-81
2022/10/08 03:19:46;;;;;;;10.43;2.63;;;;;;;;;;5094246;28;20427;-82
2022/10/08 03:22:13;;;;;;;12.60;2.70;;;;;;;;;;5099058;28;20491;-83
2022/10/08 03:24:46;;;;;;;12.13;2.70;;;;;;;;;;5085758;28;20784;-81
2022/10/08 03:27:14;;;;;;;8.90;2.40;;;;;;;;;;5112046;28;20396;-83
2022/10/08 03:29:43;;;;;;;11.57;2.63;;;;;;;;;;5111831;28;20404;-83
2022/10/08 03:32:11;;;;;;;13.07;2.95;;;;;;;;;;5093676;28;20427;-83
2022/10/08 03:34:44;;;;;;;13.98;2.80;;;;;;;;;;5106923;27;20436;-82
2022/10/08 03:37:11;;;;;;;14.02;3.00;;;;;;;;;;5094615;28;20421;-81
2022/10/08 03:39:39;;;;;;;12.13;3.08;;;;;;;;;;5090891;28;20410;-82
2022/10/08 03:42:12;;;;;;;12.88;2.78;;;;;;;;;;5073037;28;20417;-81
2022/10/08 03:44:40;;;;;;;12.07;2.60;;;;;;;;;;5091424;28;20405;-81
2022/10/08 03:47:14;;;;;;;8.63;2.47;;;;;;;;;;5092954;28;20425;-84
2022/10/08 03:49:47;;;;;;;10.73;2.60;;;;;;;;;;5091516;28;20421;-81
2022/10/08 03:52:20;;;;;;;11.63;2.70;;;;;;;;;;5091782;28;20854;-83
2022/10/08 03:54:53;;;;;;;12.53;2.47;;;;;;;;;;5072717;28;20547;-81
2022/10/08 03:57:25;;;;;;;11.02;2.35;;;;;;;;;;5072888;28;20414;-82
2022/10/08 03:59:58;;;;;;;9.20;2.55;;;;;;;;;;5073150;28;20426;-82
2022/10/08 04:02:27;;;;;;;12.73;2.75;;;;;;;;;;5073136;28;20417;-82
2022/10/08 04:04:55;;;;;;;11.80;2.60;;;;;;;;;;5072658;28;20440;-81
2022/10/08 04:07:23;;;;;;;11.57;2.70;;;;;;;;;;5072440;28;20414;-83
2022/10/08 04:09:56;;;;;;;14.83;3.07;;;;;;;;;;5109199;28;20427;-81
2022/10/08 04:12:23;;;;;;;12.40;2.97;;;;;;;;;;5109423;28;20876;-83
2022/10/08 04:14:51;;;;;;;12.07;2.88;;;;;;;;;;5087257;28;20423;-82
2022/10/08 04:17:24;;;;;;;12.05;2.78;;;;;;;;;;5074598;28;20767;-82
2022/10/08 04:19:53;;;;;;;13.05;2.45;;;;;;;;;;5107678;28;20861;-81
2022/10/08 04:22:26;;;;;;;13.67;2.60;;;;;;;;;;5096985;28;20416;-81
2022/10/08 04:24:58;;;;;;;14.70;3.03;;;;;;;;;;5078552;28;20426;-82
2022/10/08 04:27:26;;;;;;;13.53;3.03;;;;;;;;;;5072389;28;20840;-81
2022/10/08 04:29:59;;;;;;;14.32;3.08;;;;;;;;;;5072207;28;20421;-82
2022/10/08 04:32:32;;;;;;;12.00;2.55;;;;;;;;;;5091187;28;20414;-82
2022/10/08 04:35:01;;;;;;;12.20;2.90;;;;;;;;;;5076070;28;20410;-83
2022/10/08 04:37:29;;;;;;;9.93;2.65;;;;;;;;;;5075921;28;20425;-82
2022/10/08 04:40:02;;;;;;;13.38;2.80;;;;;;;;;;5076714;28;20917;-82
2022/10/08 04:42:30;;;;;;;11.20;2.47;;;;;;;;;;5076298;28;20421;-82
2022/10/08 04:44:58;;;;;;;14.25;2.92;;;;;;;;;;5076004;28;20421;-83
2022/10/08 04:47:25;;;;;;;13.40;2.95;;;;;;;;;;5075631;28;20429;-82
2022/10/08 04:49:53;;;;;;;11.35;2.72;;;;;;;;;;5075928;28;20421;-82
2022/10/08 04:52:22;;;;;;;15.38;2.92;;;;;;;;;;5075919;28;20425;-82
2022/10/08 04:54:55;;;;;;;18.60;3.27;;;;;;;;;;5094624;28;20432;-81
2022/10/08 04:57:23;;;;;;;11.73;3.00;;;;;;;;;;5075354;28;20430;-83
2022/10/08 04:59:56;;;;;;;12.52;3.15;;;;;;;;;;5076734;28;20444;-83
2022/10/08 05:02:23;;;;;;;17.73;2.90;;;;;;;;;;5109891;28;21051;-82
2022/10/08 05:04:56;;;;;;;13.07;2.80;;;;;;;;;;5112653;28;20420;-82
2022/10/08 05:07:25;;;;;;;12.80;2.80;;;;;;;;;;5095885;28;20420;-83
2022/10/08 05:09:58;;;;;;;11.75;2.90;;;;;;;;;;5095802;28;20424;-82
2022/10/08 05:12:26;;;;;;;12.68;2.95;;;;;;;;;;5095410;28;20876;-82
2022/10/08 05:14:59;;;;;;;18.13;3.33;;;;;;;;;;5095388;28;20416;-82
2022/10/08 05:17:31;;;;;;;10.93;3.80;;;;;;;;;;5080884;28;20414;-82
2022/10/08 05:20:05;;;;;;;14.73;3.15;;;;;;;;;;5075878;28;20425;-83
2022/10/08 05:22:34;;;;;;;12.35;3.63;;;;;;;;;;5094114;28;20410;-82
2022/10/08 05:25:02;;;;;;;13.40;3.03;;;;;;;;;;5093993;28;20414;-83
2022/10/08 05:27:30;;;;;;;9.95;2.92;;;;;;;;;;5075499;28;20429;-82
2022/10/08 05:30:03;;;;;;;10.98;2.78;;;;;;;;;;5075465;28;20425;-81
2022/10/08 05:32:35;;;;;;;10.57;2.85;;;;;;;;;;5093744;28;20420;-82
2022/10/08 05:35:03;;;;;;;13.27;2.90;;;;;;;;;;5107664;28;20417;-83
2022/10/08 05:37:32;;;;;;;11.38;3.13;;;;;;;;;;5093494;28;20417;-81
2022/10/08 05:40:01;;;;;;;14.43;3.90;;;;;;;;;;5093737;28;20429;-82
2022/10/08 05:42:33;;;;;;;9.45;2.97;;;;;;;;;;5075310;28;20762;-81
2022/10/08 05:45:07;;;;;;;13.43;3.17;;;;;;;;;;5073831;28;20426;-83
2022/10/08 05:47:36;;;;;;;13.48;2.95;;;;;;;;;;5075033;28;20409;-82
2022/10/08 05:50:09;;;;;;;12.37;2.97;;;;;;;;;;5075643;28;20414;-82
2022/10/08 05:52:42;;;;;;;14.90;3.00;;;;;;;;;;5074943;28;20414;-82
2022/10/08 05:55:11;;;;;;;16.55;3.50;;;;;;;;;;5075205;28;20413;-82
2022/10/08 05:57:44;;;;;;;11.00;2.85;;;;;;;;;;5079827;28;20420;-81
2022/10/08 06:00:12;;;;;;;12.35;3.20;;;;;;;;;;5093892;28;20404;-83
2022/10/08 06:02:40;;;;;;;9.33;3.00;;;;;;;;;;5079696;28;20431;-82
2022/10/08 06:05:08;;;;;;;11.07;3.00;;;;;;;;;;5109773;28;20422;-82
2022/10/08 06:07:36;;;;;;;13.35;3.22;;;;;;;;;;5098987;28;20423;-84
2022/10/08 06:10:09;;;;;;;10.15;3.20;;;;;;;;;;5093058;28;20425;-82
2022/10/08 06:12:43;;;;;;;15.52;3.20;;;;;;;;;;5116284;27;20412;-82
2022/10/08 06:15:15;;;;;;;11.63;3.00;;;;;;;;;;5083497;28;20417;-83
2022/10/08 06:17:50;;;;;;;11.93;2.80;;;;;;;;;;5089762;28;20436;-82
2022/10/08 06:20:23;;;;;;;10.68;2.97;;;;;;;;;;5094653;28;20435;-81
2022/10/08 06:22:50;;;;;;;13.90;3.42;;;;;;;;;;5094740;28;20417;-81
2022/10/08 06:25:23;;;;;;;13.80;3.13;;;;;;;;;;5080040;28;20418;-81
2022/10/08 06:27:52;;;;;;;10.03;2.80;;;;;;;;;;5101739;28;20426;-81
2022/10/08 06:30:25;;;;;;;13.73;3.30;;;;;;;;;;5103106;28;20418;-83
2022/10/08 06:32:53;;;;;;;10.10;3.13;;;;;;;;;;5096372;28;20409;-83
2022/10/08 06:35:25;;;;;;;12.57;3.00;;;;;;;;;;5096133;27;20408;-82
2022/10/08 06:37:58;;;;;;;10.63;2.70;;;;;;;;;;5098420;27;20960;-82
2022/10/08 06:40:31;;;;;;;10.60;3.17;;;;;;;;;;5102412;28;20435;-83
2022/10/08 06:43:06;;;;;;;17.15;3.00;;;;;;;;;;5086326;28;20413;-82
2022/10/08 06:45:39;;;;;;;13.47;3.17;;;;;;;;;;5089367;28;20417;-83
2022/10/08 06:48:07;;;;;;;11.95;3.10;;;;;;;;;;5086489;28;20409;-82
2022/10/08 06:50:35;;;;;;;13.35;3.30;;;;;;;;;;5112673;28;20411;-83
2022/10/08 06:53:09;;;;;;;9.05;2.90;;;;;;;;;;5077608;28;20437;-81
2022/10/08 06:55:42;;;;;;;12.10;3.10;;;;;;;;;;5094241;28;20425;-82
2022/10/08 06:58:11;;;;;;;14.20;3.15;;;;;;;;;;5074199;28;20425;-80
2022/10/08 07:00:44;;;;;;;9.47;3.30;;;;;;;;;;5081867;28;20424;-82
2022/10/08 07:03:11;;;;;;;12.60;3.90;;;;;;;;;;5098756;28;20417;-83
2022/10/08 07:05:39;;;;;;;11.05;2.95;;;;;;;;;;5075699;28;20420;-81
2022/10/08 07:08:13;;;;;;;13.00;3.33;;;;;;;;;;5096422;28;20771;-82
2022/10/08 07:10:46;;;;;;;12.45;3.22;;;;;;;;;;5078954;28;20770;-81
2022/10/08 07:13:15;;;;;;;12.05;3.00;;;;;;;;;;5098457;28;20420;-82
2022/10/08 07:15:48;;;;;;;11.07;2.97;;;;;;;;;;5082229;28;20894;-82
2022/10/08 07:18:20;;;;;;;12.50;2.80;;;;;;;;;;5095726;28;20421;-82
2022/10/08 07:20:54;;;;;;;9.57;2.85;;;;;;;;;;5098104;28;20429;-82
2022/10/08 07:23:27;;;;;;;13.85;2.80;;;;;;;;;;5105207;28;20420;-83
2022/10/08 07:25:56;;;;;;;11.88;2.92;;;;;;;;;;5095201;28;21057;-82
2022/10/08 07:28:31;;;;;;;15.68;3.00;;;;;;;;;;5080905;28;20428;-81
2022/10/08 07:31:02;;;;;;;12.03;2.80;;;;;;;;;;5095896;28;20425;-82
2022/10/08 07:33:35;;;;;;;14.65;3.30;;;;;;;;;;5102483;28;20423;-82
2022/10/08 07:36:06;;;;;;;6.95;2.60;;;;;;;;;;5105417;28;20429;-82
2022/10/08 07:38:40;;;;;;;9.75;2.60;;;;;;;;;;5102111;28;20784;-83
2022/10/08 07:41:08;;;;;;;12.00;2.90;;;;;;;;;;5100498;28;20418;-81
2022/10/08 07:43:39;;;;;;;12.57;3.30;;;;;;;;;;5095870;28;20429;-84
2022/10/08 07:46:13;;;;;;;15.15;4.43;;;;;;;;;;5103830;28;20419;-83
2022/10/08 07:48:40;;;;;;;16.47;5.13;;;;;;;;;;5079239;28;20518;-83
2022/10/08 07:51:09;;;;;;;21.88;11.90;;;;;;;;;;5096607;28;20410;-83
2022/10/08 07:53:37;;;;;;;19.05;6.43;;;;;;;;;;5097445;28;20420;-83
2022/10/08 07:56:11;;;;;;;11.55;3.60;;;;;;;;;;5106871;28;21037;-82
2022/10/08 07:58:40;;;;;;;20.83;5.00;;;;;;;;;;5082123;28;20456;-80
2022/10/08 08:01:14;;;;;;;13.30;4.32;;;;;;;;;;5082341;28;20425;-85
2022/10/08 08:03:52;;;;;;;13.32;4.25;;;;;;;;;;5094443;28;20909;-84
2022/10/08 08:06:25;;;;;;;13.48;5.80;;;;;;;;;;5081179;28;20429;-82
2022/10/08 08:08:59;;;;;;;12.52;3.75;;;;;;;;;;5084015;28;20779;-82
2022/10/08 08:11:32;;;;;;;15.10;4.18;;;;;;;;;;5088279;28;20447;-83
2022/10/08 08:14:06;;;;;;;16.55;4.10;;;;;;;;;;5085585;28;20420;-82
2022/10/08 08:16:34;;;;;;;13.50;6.15;;;;;;;;;;5087572;28;20447;-81
2022/10/08 08:19:07;;;;;;;13.63;3.90;;;;;;;;;;5086724;28;20447;-87
2022/10/08 08:21:40;;;;;;;12.93;4.10;;;;;;;;;;5096195;28;20420;-84
2022/10/08 08:24:14;;;;;;;11.73;3.25;;;;;;;;;;5081675;28;20452;-81
2022/10/08 08:26:42;;;;;;;13.23;3.38;;;;;;;;;;5097592;28;20417;-82
2022/10/08 08:29:12;;;;;;;14.70;5.03;;;;;;;;;;5080940;28;20811;-85
2022/10/08 08:31:45;;;;;;;12.43;3.93;;;;;;;;;;5077536;28;20427;-83
2022/10/08 08:34:19;;;;;;;11.32;4.03;;;;;;;;;;5098782;28;20419;-83
2022/10/08 08:36:53;;;;;;;11.55;3.95;;;;;;;;;;5084980;28;21155;-82
2022/10/08 08:39:26;;;;;;;11.02;3.83;;;;;;;;;;5101153;27;20427;-85
2022/10/08 08:42:11;;;;;;;10.13;3.90;;;;;;;;;;5075561;28;20435;-83
2022/10/08 08:44:46;;;;;;;14.00;3.65;;;;;;;;;;5075963;28;20455;-84
2022/10/08 08:47:19;;;;;;;11.63;3.83;;;;;;;;;;5068168;28;20412;-84
2022/10/08 08:49:53;;;;;;;12.88;3.78;;;;;;;;;;5071489;28;21063;-84
2022/10/08 08:52:22;;;;;;;9.88;3.30;;;;;;;;;;5072161;28;20434;-84
2022/10/08 08:54:55;;;;;;;13.85;3.17;;;;;;;;;;5092944;28;20424;-85
2022/10/08 08:57:33;;;;;;;9.53;3.17;;;;;;;;;;5087249;28;21623;-84
2022/10/08 09:00:04;;;;;;;8.77;3.00;;;;;;;;;;5088510;28;20823;-84
2022/10/08 09:02:40;;;;;;;16.65;5.65;;;;;;;;;;5085651;28;20419;-85
2022/10/08 09:05:15;;;;;;;15.68;6.32;;;;;;;;;;5098956;28;20764;-84
2022/10/08 09:07:50;;;;;;;14.85;4.40;;;;;;;;;;5108687;28;20423;-84
2022/10/08 09:10:24;;;;;;;13.48;2.78;;;;;;;;;;5099516;27;20426;-85
2022/10/08 09:12:57;;;;;;;9.90;2.78;;;;;;;;;;5089156;28;20413;-84
2022/10/08 09:15:32;;;;;;;12.50;2.97;;;;;;;;;;5083405;28;21074;-85
2022/10/08 09:18:03;;;;;;;11.07;2.90;;;;;;;;;;5094806;28;20921;-83
2022/10/08 09:20:38;;;;;;;12.03;3.37;;;;;;;;;;5100718;28;21324;-82
2022/10/08 09:23:12;;;;;;;9.77;2.80;;;;;;;;;;5103244;28;20751;-85
2022/10/08 09:25:47;;;;;;;7.50;2.33;;;;;;;;;;5094737;28;20421;-84
2022/10/08 09:28:30;;;;;;;7.53;2.60;;;;;;;;;;5103442;27;20421;-88
2022/10/08 09:31:11;;;;;;;12.77;2.88;;;;;;;;;;5085762;28;20798;-84
2022/10/08 09:33:39;;;;;;;10.80;3.10;;;;;;;;;;5082124;28;21152;-84
2022/10/08 09:36:12;;;;;;;10.75;2.50;;;;;;;;;;5097774;28;20465;-84
2022/10/08 09:38:45;;;;;;;10.65;4.78;;;;;;;;;;5095746;28;20422;-84
2022/10/08 09:41:22;;;;;;;11.85;2.50;;;;;;;;;;5097985;28;20424;-83
2022/10/08 09:44:09;;;;;;;12.63;2.38;;;;;;;;;;5077887;28;20917;-83
2022/10/08 09:46:43;;;;;;;11.27;2.30;;;;;;;;;;5100089;28;20421;-84
2022/10/08 09:49:27;;;;;;;9.27;2.20;;;;;;;;;;5082355;28;20422;-86
2022/10/08 09:51:56;;;;;;;8.65;2.20;;;;;;;;;;5084742;28;20427;-87
2022/10/08 09:54:30;;;;;;;11.48;2.08;;;;;;;;;;5097111;27;20432;-89
2022/10/08 09:56:58;;;;;;;10.30;2.50;;;;;;;;;;5077603;28;20923;-83
2022/10/08 09:59:35;;;;;;;9.20;2.42;;;;;;;;;;5078309;28;20429;-86
2022/10/08 10:02:06;;;;;;;8.97;2.43;;;;;;;;;;5092792;28;20785;-84
2022/10/08 10:04:36;;;;;;;7.82;1.75;;;;;;;;;;5101038;28;20873;-84
2022/10/08 10:07:09;;;;;;;8.13;1.88;;;;;;;;;;5096311;27;20434;-88
2022/10/08 10:09:40;;;;;;;11.85;2.00;;;;;;;;;;5091543;28;20456;-88
2022/10/08 10:12:21;;;;;;;8.47;1.70;;;;;;;;;;5095303;28;20446;-89
2022/10/08 10:14:56;;;;;;;13.80;2.05;;;;;;;;;;5082524;28;20430;-85
2022/10/08 10:17:35;;;;;;;13.80;1.92;;;;;;;;;;5101244;28;20441;-90
2022/10/08 10:20:12;;;;;;;9.45;1.75;;;;;;;;;;5101114;28;20417;-86
2022/10/08 10:22:50;;;;;;;9.25;1.63;;;;;;;;;;5085931;28;20430;-89
2022/10/08 10:25:23;;;;;;;7.93;1.65;;;;;;;;;;5087991;28;20433;-91
2022/10/08 10:27:52;;;;;;;8.25;1.63;;;;;;;;;;5097446;28;20421;-90
2022/10/08 10:30:21;;;;;;;7.50;1.50;;;;;;;;;;5079530;28;20439;-86
2022/10/08 10:32:53;;;;;;;8.32;1.23;;;;;;;;;;5076529;28;20430;-86
2022/10/08 10:35:27;;;;;;;4.97;1.20;;;;;;;;;;5079547;28;20508;-84
2022/10/08 10:37:58;;;;;;;6.70;1.13;;;;;;;;;;5079559;28;20455;-86
2022/10/08 10:40:36;;;;;;;7.00;1.35;;;;;;;;;;5084724;28;20796;-86
2022/10/08 10:43:17;;;;;;;6.38;1.35;;;;;;;;;;5075984;28;20433;-86
2022/10/08 10:45:48;;;;;;;4.47;0.85;;;;;;;;;;5075408;28;20423;-87
2022/10/08 10:48:17;;;;;;;3.35;1.00;;;;;;;;;;5084152;28;20445;-86
2022/10/08 10:50:51;;;;;;;5.32;1.15;;;;;;;;;;5073261;28;20442;-86
2022/10/08 10:53:21;;;;;;;7.20;1.20;;;;;;;;;;5096594;28;20431;-89
2022/10/08 10:55:53;;;;;;;5.32;1.15;;;;;;;;;;5079401;28;20763;-87
2022/10/08 10:58:35;;;;;;;7.60;1.30;;;;;;;;;;5081368;28;20996;-87
2022/10/08 11:01:08;;;;;;;8.60;1.03;;;;;;;;;;5082203;28;20499;-86
2022/10/08 11:03:46;;;;;;;5.93;1.20;;;;;;;;;;5103639;28;20426;-87
2022/10/08 11:06:40;;;;;;;6.28;1.13;;;;;;;;;;5077825;28;20429;-86
2022/10/08 11:09:17;;;;;;;6.80;1.25;;;;;;;;;;5097914;28;20991;-86
2022/10/08 11:11:54;;;;;;;4.57;1.20;;;;;;;;;;5098009;28;20475;-85
2022/10/08 11:14:37;;;;;;;4.97;1.05;;;;;;;;;;5088704;28;20413;-86
2022/10/08 11:17:18;;;;;;;3.90;1.05;;;;;;;;;;5103136;28;20431;-87
2022/10/08 11:19:50;;;;;;;6.90;1.20;;;;;;;;;;5084196;28;20417;-88
2022/10/08 11:22:27;;;;;;;4.18;0.82;;;;;;;;;;5094567;28;20418;-85
2022/10/08 11:25:15;;;;;;;6.75;1.30;;;;;;;;;;5082238;28;20412;-88
2022/10/08 11:27:54;;;;;;;5.40;1.52;;;;;;;;;;5080034;28;20424;-89
2022/10/08 11:30:22;;;;;;;11.48;3.42;;;;;;;;;;5078311;28;20446;-86
2022/10/08 11:32:51;;;;;;;7.22;3.15;;;;;;;;;;5104201;28;20416;-89
2022/10/08 11:35:24;;;;;;;5.40;1.40;;;;;;;;;;5097634;28;20420;-86
2022/10/08 11:37:55;;;;;;;5.80;1.00;;;;;;;;;;5083335;28;20432;-88
2022/10/08 11:40:26;;;;;;;7.30;1.80;;;;;;;;;;5081602;28;20777;-88
2022/10/08 11:43:03;;;;;;;4.15;1.30;;;;;;;;;;5081617;28;20429;-88
2022/10/08 11:45:36;;;;;;;6.93;1.50;;;;;;;;;;5098392;28;20420;-90
2022/10/08 11:48:28;;;;;;;3.65;1.02;;;;;;;;;;5081076;28;20425;-89
2022/10/08 11:51:10;;;;;;;4.28;0.82;;;;;;;;;;5079647;28;20437;-88
2022/10/08 11:53:56;;;;;;;3.80;1.05;;;;;;;;;;5079366;28;20437;-87
2022/10/08 11:56:24;;;;;;;5.22;1.30;;;;;;;;;;5096117;28;20406;-84
2022/10/08 11:58:53;;;;;;;3.47;1.20;;;;;;;;;;5097103;28;20418;-88
2022/10/08 12:01:27;;;;;;;3.28;1.35;;;;;;;;;;5087246;28;20443;-86
2022/10/08 12:04:03;;;;;;;6.68;1.30;;;;;;;;;;5083021;28;20959;-86
2022/10/08 12:06:34;;;;;;;3.90;1.05;;;;;;;;;;5103601;28;20490;-84
2022/10/08 12:09:04;;;;;;;4.47;1.00;;;;;;;;;;5082986;28;21203;-86
2022/10/08 12:11:49;;;;;;;9.55;3.45;;;;;;;;;;5081087;28;20420;-87
2022/10/08 12:14:46;;;;;;;14.43;5.40;;;;;;;;;;5098166;28;20426;-86
2022/10/08 12:17:19;;;;;;;4.45;1.25;;;;;;;;;;5090100;28;20435;-85
2022/10/08 12:20:08;;;;;;;3.78;1.15;;;;;;;;;;5093059;28;20772;-86
2022/10/08 12:22:44;;;;;;;3.42;0.93;;;;;;;;;;5076887;28;20409;-85
2022/10/08 12:25:33;;;;;;;7.70;1.00;;;;;;;;;;5091334;28;20865;-88
2022/10/08 12:28:20;;;;;;;3.97;1.00;;;;;;;;;;5091204;28;20758;-87
2022/10/08 12:30:49;;;;;;;5.22;0.93;;;;;;;;;;5094001;28;20771;-85
2022/10/08 12:33:17;;;;;;;2.85;0.80;;;;;;;;;;5097645;28;20406;-86
2022/10/08 12:35:52;;;;;;;4.10;0.90;;;;;;;;;;5092053;28;20885;-86
2022/10/08 12:38:29;;;;;;;2.88;1.00;;;;;;;;;;5087244;28;20423;-87
2022/10/08 12:41:08;;;;;;;3.90;1.00;;;;;;;;;;5086794;28;20427;-84
2022/10/08 12:43:43;;;;;;;4.00;1.00;;;;;;;;;;5102174;28;20420;-84
2022/10/08 12:46:21;;;;;;;3.42;1.40;;;;;;;;;;5078621;28;20427;-86
2022/10/08 12:48:58;;;;;;;2.30;0.80;;;;;;;;;;5086636;28;20419;-86
2022/10/08 12:51:37;;;;;;;3.90;0.80;;;;;;;;;;5102553;28;20885;-86
2022/10/08 12:54:05;;;;;;;2.00;0.80;;;;;;;;;;5073745;28;20417;-84
2022/10/08 12:56:34;;;;;;;2.00;0.82;;;;;;;;;;5100895;28;20747;-82
2022/10/08 12:59:04;;;;;;;1.83;0.77;;;;;;;;;;5105084;27;20416;-85
2022/10/08 13:01:32;;;;;;;3.13;0.85;;;;;;;;;;5113390;28;20415;-83
2022/10/08 13:04:16;;;;;;;2.20;0.70;;;;;;;;;;5113537;28;20753;-84
2022/10/08 13:06:44;;;;;;;4.63;0.80;;;;;;;;;;5112262;27;20426;-84
2022/10/08 13:09:27;;;;;;;1.73;0.70;;;;;;;;;;5112278;27;20425;-84
2022/10/08 13:11:57;;;;;;;3.05;0.80;;;;;;;;;;5076614;28;20418;-84
2022/10/08 13:14:25;;;;;;;2.27;0.60;;;;;;;;;;5094474;28;20881;-87
2022/10/08 13:16:58;;;;;;;3.58;0.90;;;;;;;;;;5075921;28;20414;-85
2022/10/08 13:19:28;;;;;;;4.63;0.87;;;;;;;;;;5075565;28;20434;-84
2022/10/08 13:22:01;;;;;;;3.72;0.88;;;;;;;;;;5083228;28;20432;-85
2022/10/08 13:24:41;;;;;;;3.73;0.97;;;;;;;;;;5085593;28;20439;-83
2022/10/08 13:27:25;;;;;;;3.72;1.00;;;;;;;;;;5094868;27;20422;-85
2022/10/08 13:29:58;;;;;;;2.97;0.80;;;;;;;;;;5105093;28;20412;-83
2022/10/08 13:32:28;;;;;;;4.93;0.70;;;;;;;;;;5095746;28;20756;-83
2022/10/08 13:35:02;;;;;;;3.42;0.73;;;;;;;;;;5110898;27;20412;-85
2022/10/08 13:37:31;;;;;;;8.45;0.80;;;;;;;;;;5085971;28;20428;-84
2022/10/08 13:40:16;;;;;;;3.90;0.80;;;;;;;;;;5095908;28;20420;-84
2022/10/08 13:42:47;;;;;;;4.50;0.90;;;;;;;;;;5095776;28;20412;-84
2022/10/08 13:45:16;;;;;;;7.07;1.10;;;;;;;;;;5078891;28;20416;-83
2022/10/08 13:47:44;;;;;;;3.63;0.80;;;;;;;;;;5077314;28;20874;-84
2022/10/08 13:50:12;;;;;;;4.53;0.88;;;;;;;;;;5074526;28;20418;-86
2022/10/08 13:52:42;;;;;;;4.40;0.93;;;;;;;;;;5075277;28;20414;-85
2022/10/08 13:55:20;;;;;;;5.50;1.08;;;;;;;;;;5075329;28;20417;-84
2022/10/08 13:57:54;;;;;;;6.93;0.95;;;;;;;;;;5075130;28;20418;-86
2022/10/08 14:00:27;;;;;;;4.55;1.30;;;;;;;;;;5074755;28;20418;-83
2022/10/08 14:03:01;;;;;;;5.32;0.90;;;;;;;;;;5090695;28;20428;-85
2022/10/08 14:05:30;;;;;;;6.07;0.90;;;;;;;;;;5073947;28;20770;-85
2022/10/08 14:08:04;;;;;;;5.95;0.90;;;;;;;;;;5089579;28;20443;-86
2022/10/08 14:10:38;;;;;;;5.40;0.77;;;;;;;;;;5093819;28;20413;-84
2022/10/08 14:13:09;;;;;;;6.23;1.17;;;;;;;;;;5113514;28;20405;-87
2022/10/08 14:15:42;;;;;;;5.57;0.90;;;;;;;;;;5113618;28;20460;-83
2022/10/08 14:18:09;;;;;;;4.90;1.00;;;;;;;;;;5094590;28;20423;-85
2022/10/08 14:20:42;;;;;;;5.55;0.80;;;;;;;;;;5093707;28;20412;-85
2022/10/08 14:23:15;;;;;;;5.50;1.13;;;;;;;;;;5094053;28;20424;-86
2022/10/08 14:25:48;;;;;;;4.43;0.80;;;;;;;;;;5113288;28;20502;-87
2022/10/08 14:28:17;;;;;;;4.25;0.80;;;;;;;;;;5113142;28;20396;-87
2022/10/08 14:30:45;;;;;;;4.70;0.90;;;;;;;;;;5094464;28;20420;-85
2022/10/08 14:33:18;;;;;;;4.00;0.90;;;;;;;;;;5094168;28;20420;-84
2022/10/08 14:35:45;;;;;;;6.53;0.83;;;;;;;;;;5092921;28;20409;-86
2022/10/08 14:38:18;;;;;;;4.50;0.80;;;;;;;;;;5090480;28;21189;-86
2022/10/08 14:40:46;;;;;;;6.30;0.88;;;;;;;;;;5106350;28;20398;-84
2022/10/08 14:43:14;;;;;;;4.68;0.82;;;;;;;;;;5090881;28;20420;-85
2022/10/08 14:45:48;;;;;;;4.18;0.70;;;;;;;;;;5092140;28;20921;-87
2022/10/08 14:48:21;;;;;;;8.32;1.17;;;;;;;;;;5092121;28;20416;-85
2022/10/08 14:50:49;;;;;;;6.13;0.93;;;;;;;;;;5091749;28;20428;-84
2022/10/08 14:53:21;;;;;;;5.40;0.95;;;;;;;;;;5091997;28;20420;-84
2022/10/08 14:55:49;;;;;;;6.55;1.02;;;;;;;;;;5110847;28;20408;-84
2022/10/08 14:58:22;;;;;;;4.90;1.10;;;;;;;;;;5109010;28;20476;-84
2022/10/08 15:00:57;;;;;;;6.57;1.15;;;;;;;;;;5106637;28;20407;-86
2022/10/08 15:03:30;;;;;;;6.43;1.20;;;;;;;;;;5108929;28;20408;-85
2022/10/08 15:05:58;;;;;;;6.28;1.00;;;;;;;;;;5096446;28;20412;-85
2022/10/08 15:08:26;;;;;;;7.07;1.30;;;;;;;;;;5110427;28;20416;-86